CW0949 Weather Reports


time (UTC)temp
C
wind
direction
speed
KPH
gust
KPH
rain 1hr
cm
rain 24hr
cm
rain mn
cm
humidity
%
barometer
mb
20190422122029 25 64 3.2 12.9 0.00 0.00 0.00 24 1006.5
20190422121528 26 131 1.6 8.0 0.00 0.00 0.00 24 1006.4
20190422121022 25 97 1.6 9.7 0.00 0.00 0.00 25 1006.5
20190422120536 25 76 0.0 9.7 0.00 0.00 0.00 25 1006.5
20190422120032 25 117 1.6 12.9 0.00 0.00 0.00 25 1006.7
20190422115528 25 118 3.2 14.5 0.00 0.00 0.00 24 1006.7
20190422115025 25 117 4.8 14.5 0.00 0.00 0.00 24 1006.8
20190422114523 25 105 3.2 19.3 0.00 0.00 0.00 25 1006.9
20190422114037 25 147 3.2 17.7 0.00 0.00 0.00 26 1006.9
20190422113533 25 127 8.0 17.7 0.00 0.00 0.00 23 1007.0
20190422113029 25 132 3.2 19.3 0.00 0.00 0.00 24 1007.1
20190422112524 25 130 8.0 20.9 0.00 0.00 0.00 23 1007.3
20190422112038 25 135 3.2 20.9 0.00 0.00 0.00 25 1007.3
20190422111535 25 75 6.4 17.7 0.00 0.00 0.00 24 1007.3
20190422111030 25 125 6.4 17.7 0.00 0.00 0.00 24 1007.5
20190422110525 25 109 8.0 17.7 0.00 0.00 0.00 25 1007.6
20190422110021 25 71 6.4 14.5 0.00 0.00 0.00 24 1007.5
20190422105537 25 62 4.8 14.5 0.00 0.00 0.00 26 1007.6
20190422105033 24 59 3.2 16.1 0.00 0.00 0.00 26 1007.8
20190422104528 24 125 6.4 16.1 0.00 0.00 0.00 25 1007.8
20190422104023 24 146 6.4 14.5 0.00 0.00 0.00 28 1007.9
20190422103538 24 88 4.8 14.5 0.00 0.00 0.00 29 1007.9
20190422103035 23 134 4.8 19.3 0.00 0.00 0.00 29 1008.1
20190422102531 23 143 8.0 20.9 0.00 0.00 0.00 28 1008.2
20190422102027 23 121 8.0 17.7 0.00 0.00 0.00 27 1008.3
20190422101523 23 149 4.8 17.7 0.00 0.00 0.00 30 1008.3
20190422101039 23 131 4.8 17.7 0.00 0.00 0.00 30 1008.3
20190422100522 23 135 3.2 12.9 0.00 0.00 0.00 30 1008.5
20190422100037 23 142 3.2 12.9 0.00 0.00 0.00 31 1008.5
20190422095531 23 133 1.6 11.3 0.00 0.00 0.00 33 1008.6
20190422095027 22 96 3.2 14.5 0.00 0.00 0.00 32 1008.8
20190422094525 22 101 4.8 14.5 0.00 0.00 0.00 32 1008.8
20190422094021 22 107 1.6 12.9 0.00 0.00 0.00 33 1008.8
20190422093536 22 128 1.6 11.3 0.00 0.00 0.00 33 1008.9
20190422093034 22 157 1.6 8.0 0.00 0.00 0.00 34 1009.0
20190422092530 22 109 1.6 11.3 0.00 0.00 0.00 36 1009.0
20190422092032 22 169 3.2 11.3 0.00 0.00 0.00 35 1009.1
20190422091020 21 123 1.6 9.7 0.00 0.00 0.00 37 1009.1
20190422090537 21 132 1.6 9.7 0.00 0.00 0.00 36 1009.1
20190422090032 21 118 1.6 9.7 0.00 0.00 0.00 39 1009.2
20190422085528 21 134 1.6 9.7 0.00 0.00 0.00 39 1009.2
20190422085022 21 101 1.6 11.3 0.00 0.00 0.00 40 1009.4
20190422084539 20 111 1.6 11.3 0.00 0.00 0.00 40 1009.4
20190422084035 20 92 4.8 11.3 0.00 0.00 0.00 40 1009.5
20190422083530 20 133 0.0 9.7 0.00 0.00 0.00 43 1009.5
20190422083028 20 115 1.6 9.7 0.00 0.00 0.00 44 1009.4
20190422082522 19 139 0.0 9.7 0.00 0.00 0.00 45 1009.4
20190422082038 18 140 1.6 9.7 0.00 0.00 0.00 46 1009.6
20190422081536 18 107 1.6 6.4 0.00 0.00 0.00 46 1009.6
20190422081030 18 116 1.6 9.7 0.00 0.00 0.00 47 1009.6
20190422080526 18 148 1.6 9.7 0.00 0.00 0.00 48 1009.7
20190422080022 17 109 1.6 8.0 0.00 0.00 0.00 49 1009.6
20190422075537 17 85 1.6 8.0 0.00 0.00 0.00 49 1009.8
20190422075032 17 120 1.6 6.4 0.00 0.00 0.00 51 1009.9
20190422074530 17 101 0.0 6.4 0.00 0.00 0.00 53 1009.9
20190422074026 16 88 1.6 9.7 0.00 0.00 0.00 53 1009.9
20190422073521 16 140 3.2 9.7 0.00 0.00 0.00 53 1010.0
20190422073039 16 103 0.0 6.4 0.00 0.00 0.00 55 1010.0
20190422072535 15 157 0.0 6.4 0.00 0.00 0.00 57 1010.1
20190422072030 15 81 1.6 6.4 0.00 0.00 0.00 57 1010.2
20190422071528 15 109 0.0 6.4 0.00 0.00 0.00 58 1010.1
20190422071023 14 104 0.0 6.4 0.00 0.00 0.00 59 1010.0
20190422070523 14 117 0.0 4.8 0.00 0.00 0.00 59 1010.2
20190422070035 14 121 0.0 3.2 0.00 0.00 0.00 59 1010.2
20190422065535 13 106 0.0 3.2 0.00 0.00 0.00 59 1010.1
20190422065029 13 106 0.0 3.2 0.00 0.00 0.00 60 1010.1
20190422064526 13 115 0.0 3.2 0.00 0.00 0.00 61 1010.1
20190422064021 13 115 0.0 1.6 0.00 0.00 0.00 62 1010.3
20190422063536 13 106 0.0 1.6 0.00 0.00 0.00 63 1010.3
20190422063033 12 107 0.0 1.6 0.00 0.00 0.00 63 1010.3
20190422062609 12 106 0.0 0.0 0.00 0.00 0.00 64 1010.3
20190422062023 12 107 0.0 0.0 0.00 0.00 0.00 64 1010.3
20190422061539 12 105 0.0 0.0 0.00 0.00 0.00 65 1010.3
20190422061035 12 105 0.0 3.2 0.00 0.00 0.00 65 1010.3
20190422060530 11 107 0.0 3.2 0.00 0.00 0.00 65 1010.3
20190422060027 11 107 0.0 1.6 0.00 0.00 0.00 65 1010.3
20190422055522 11 107 0.0 1.6 0.00 0.00 0.00 64 1010.4
20190422055037 11 107 0.0 0.0 0.00 0.00 0.00 65 1010.3
20190422054533 11 107 0.0 0.0 0.00 0.00 0.00 64 1010.4
20190422054029 11 107 0.0 1.6 0.00 0.00 0.00 64 1010.5
20190422053524 11 107 0.0 1.6 0.00 0.00 0.00 64 1010.5
20190422053039 11 108 0.0 1.6 0.00 0.00 0.00 65 1010.6
20190422052534 11 108 0.0 1.6 0.00 0.00 0.00 65 1010.5
20190422052030 11 107 0.0 1.6 0.00 0.00 0.00 65 1010.7
20190422051527 11 107 0.0 0.0 0.00 0.00 0.00 65 1010.5
20190422051022 11 107 0.0 0.0 0.00 0.00 0.00 66 1010.5
20190422050539 11 107 0.0 0.0 0.00 0.00 0.00 66 1010.6
20190422050036 11 107 0.0 1.6 0.00 0.00 0.00 66 1010.6
20190422045531 11 107 0.0 1.6 0.00 0.00 0.00 66 1010.5
20190422045029 11 107 0.0 0.0 0.00 0.00 0.00 66 1010.6
20190422044524 11 107 0.0 0.0 0.00 0.00 0.00 66 1010.5
20190422044023 11 107 0.0 0.0 0.00 0.00 0.00 67 1010.5
20190422043539 11 107 0.0 0.0 0.00 0.00 0.00 66 1010.4
20190422043037 11 107 0.0 0.0 0.00 0.00 0.00 66 1010.5
20190422042532 11 107 0.0 0.0 0.00 0.00 0.00 66 1010.5
20190422042028 10 107 0.0 0.0 0.00 0.00 0.00 66 1010.6
20190422041524 10 107 0.0 0.0 0.00 0.00 0.00 66 1010.7
20190422041039 11 107 0.0 0.0 0.00 0.00 0.00 66 1010.6
20190422040539 11 107 0.0 0.0 0.00 0.00 0.00 66 1010.7
20190422040034 11 107 0.0 0.0 0.00 0.00 0.00 65 1010.7
20190422035529 11 107 0.0 0.0 0.00 0.00 0.00 65 1010.7
20190422035025 11 107 0.0 0.0 0.00 0.00 0.00 64 1010.8
20190422034523 11 107 0.0 0.0 0.00 0.00 0.00 64 1010.8
20190422034039 11 107 0.0 0.0 0.00 0.00 0.00 63 1010.8
20190422033533 11 107 0.0 0.0 0.00 0.00 0.00 63 1010.9
20190422033029 11 107 0.0 0.0 0.00 0.00 0.00 62 1011.1
20190422032522 11 107 0.0 0.0 0.00 0.00 0.00 61 1011.1
20190422032038 12 107 0.0 0.0 0.00 0.00 0.00 60 1011.2
20190422031536 12 107 0.0 0.0 0.00 0.00 0.00 60 1011.2
20190422031031 12 107 0.0 0.0 0.00 0.00 0.00 59 1011.3
20190422030526 12 107 0.0 0.0 0.00 0.00 0.00 59 1011.3
20190422030023 12 107 0.0 1.6 0.00 0.00 0.00 59 1011.3
20190422025539 12 107 0.0 1.6 0.00 0.00 0.00 59 1011.3
20190422025034 12 107 0.0 1.6 0.00 0.00 0.00 58 1011.4
20190422024531 12 107 0.0 3.2 0.00 0.00 0.00 58 1011.6
20190422024025 12 109 0.0 3.2 0.00 0.00 0.00 57 1011.6
20190422023540 12 84 0.0 0.0 0.00 0.00 0.00 57 1011.7
20190422023039 12 84 0.0 1.6 0.00 0.00 0.00 57 1011.7
20190422022534 13 84 0.0 1.6 0.00 0.00 0.00 57 1011.7
20190422022028 13 80 0.0 3.2 0.00 0.00 0.00 56 1011.8
20190422021526 13 78 0.0 3.2 0.00 0.00 0.00 57 1012.0
20190422021025 12 80 0.0 3.2 0.00 0.00 0.00 57 1012.0
20190422020541 12 75 0.0 1.6 0.00 0.00 0.00 58 1012.0
20190422020036 12 66 0.0 0.0 0.00 0.00 0.00 58 1012.0
20190422015532 12 66 0.0 0.0 0.00 0.00 0.00 58 1012.0
20190422015026 12 66 0.0 0.0 0.00 0.00 0.00 57 1012.0
20190422014524 13 65 0.0 0.0 0.00 0.00 0.00 57 1012.1
20190422014039 13 65 0.0 0.0 0.00 0.00 0.00 56 1012.2
20190422013533 13 65 0.0 0.0 0.00 0.00 0.00 55 1012.2
20190422013029 13 65 0.0 0.0 0.00 0.00 0.00 54 1012.3
20190422012524 13 65 0.0 0.0 0.00 0.00 0.00 54 1012.3
20190422012020 13 65 0.0 0.0 0.00 0.00 0.00 55 1012.3
20190422011541 13 65 0.0 0.0 0.00 0.00 0.00 54 1012.4
20190422011032 14 65 0.0 0.0 0.00 0.00 0.00 53 1012.4
20190422010527 14 65 0.0 0.0 0.00 0.00 0.00 52 1012.5
20190422010024 14 65 0.0 0.0 0.00 0.00 0.00 50 1012.5
20190422005628 14 65 0.0 0.0 0.00 0.00 0.00 50 1012.6
20190422005035 14 66 0.0 0.0 0.00 0.00 0.00 50 1012.6
20190422004532 14 66 0.0 1.6 0.00 0.00 0.00 50 1012.7
20190422004029 15 66 0.0 1.6 0.00 0.00 0.00 49 1012.8
20190422003525 15 65 0.0 1.6 0.00 0.00 0.00 49 1012.9
20190422003022 15 65 0.0 1.6 0.00 0.00 0.00 49 1012.9
20190422002537 15 64 526.3 526.3 0.00 0.00 0.00 49 1013.0
20190422002035 15 63 0.0 0.0 0.00 0.00 0.00 48 1013.0
20190422001534 15 63 0.0 3.2 0.00 0.00 0.00 48 1013.0
20190422001031 15 63 0.0 1.6 0.00 0.00 0.00 48 1013.3
20190422000527 15 65 0.0 1.6 0.00 0.00 0.00 47 1013.3
20190422000023 15 64 0.0 3.2 0.00 0.00 0.00 47 1013.3
20190421235525 15 67 0.0 3.2 0.00 0.00 0.00 47 1013.3
20190421235038 15 68 0.0 0.0 0.00 0.00 0.00 47 1013.4
20190421234535 15 68 0.0 0.0 0.00 0.00 0.00 47 1013.5
20190421234030 15 68 0.0 1.6 0.00 0.00 0.00 47 1013.6
20190421233527 15 67 0.0 0.0 0.00 0.00 0.00 46 1013.6
20190421233026 16 67 0.0 0.0 0.00 0.00 0.00 46 1013.8
20190421232520 16 67 0.0 0.0 0.00 0.00 0.00 46 1013.9
20190421232036 16 67 0.0 0.0 0.00 0.00 0.00 46 1013.9
20190421231533 16 67 0.0 0.0 0.00 0.00 0.00 45 1014.0
20190421231028 16 67 0.0 1.6 0.00 0.00 0.00 45 1014.0
20190421230522 16 67 0.0 1.6 0.00 0.00 0.00 44 1014.0
20190421230042 16 66 0.0 1.6 0.00 0.00 0.00 44 1014.0
20190421225536 16 67 0.0 1.6 0.00 0.00 0.00 44 1014.3
20190421225031 16 67 0.0 1.6 0.00 0.00 0.00 44 1014.2
20190421224528 16 68 0.0 0.0 0.00 0.00 0.00 44 1014.3
20190421224024 16 68 0.0 0.0 0.00 0.00 0.00 43 1014.2
20190421223538 16 68 0.0 0.0 0.00 0.00 0.00 43 1014.3
20190421223036 17 68 0.0 3.2 0.00 0.00 0.00 43 1014.2
20190421222532 17 67 0.0 3.2 0.00 0.00 0.00 42 1014.2
20190421222028 17 66 0.0 1.6 0.00 0.00 0.00 42 1014.2
20190421221526 17 66 526.3 526.3 0.00 0.00 0.00 41 1014.3
20190421221023 17 65 0.0 1.6 0.00 0.00 0.00 41 1014.4
20190421220527 17 63 0.0 1.6 0.00 0.00 0.00 41 1014.3
20190421220023 17 76 0.0 1.6 0.00 0.00 0.00 41 1014.4
20190421215538 17 77 0.0 1.6 0.00 0.00 0.00 41 1014.3
20190421215034 17 78 0.0 3.2 0.00 0.00 0.00 41 1014.4
20190421214531 17 77 0.0 3.2 0.00 0.00 0.00 40 1014.3
20190421214028 17 78 0.0 3.2 0.00 0.00 0.00 40 1014.4
20190421213526 17 79 0.0 4.8 0.00 0.00 0.00 40 1014.5
20190421213023 17 69 1.6 4.8 0.00 0.00 0.00 40 1014.5
20190421212538 17 69 0.0 3.2 0.00 0.00 0.00 40 1014.4
20190421212032 18 72 0.0 0.0 0.00 0.00 0.00 40 1014.5
20190421211529 18 72 0.0 1.6 0.00 0.00 0.00 40 1014.5
20190421211025 18 72 0.0 3.2 0.00 0.00 0.00 40 1014.6
20190421210539 18 67 0.0 1.6 0.00 0.00 0.00 39 1014.7
20190421210036 18 67 0.0 1.6 0.00 0.00 0.00 39 1014.8
20190421205531 18 67 0.0 3.2 0.00 0.00 0.00 38 1014.8
20190421205025 18 65 0.0 3.2 0.00 0.00 0.00 38 1014.7
20190421204606 18 68 0.0 1.6 0.00 0.00 0.00 38 1014.8
20190421204542 18 69 0.0 1.6 0.00 0.00 0.00 38 1014.8
20190421204034 19 69 0.0 4.8 0.00 0.00 0.00 37 1014.9
20190421203531 19 67 0.0 3.2 0.00 0.00 0.00 37 1014.9
20190421203027 19 69 0.0 3.2 0.00 0.00 0.00 37 1014.9
20190421202521 19 71 0.0 3.2 0.00 0.00 0.00 37 1014.9
20190421202036 19 81 0.0 1.6 0.00 0.00 0.00 36 1014.9
20190421201534 19 82 0.0 1.6 0.00 0.00 0.00 36 1015.0
20190421201029 20 82 0.0 1.6 0.00 0.00 0.00 36 1015.1
20190421200523 20 82 0.0 1.6 0.00 0.00 0.00 36 1015.0
20190421200040 20 82 0.0 1.6 0.00 0.00 0.00 36 1015.1
20190421195535 20 82 0.0 1.6 0.00 0.00 0.00 35 1015.1
20190421195030 20 82 0.0 1.6 0.00 0.00 0.00 35 1015.1
20190421194526 20 84 0.0 1.6 0.00 0.00 0.00 35 1015.1
20190421194022 20 84 0.0 1.6 0.00 0.00 0.00 34 1015.2
20190421193536 20 84 0.0 0.0 0.00 0.00 0.00 34 1015.1
20190421193033 20 84 0.0 0.0 0.00 0.00 0.00 35 1015.2
20190421192529 20 84 0.0 0.0 0.00 0.00 0.00 34 1015.2
20190421192024 20 84 0.0 0.0 0.00 0.00 0.00 34 1015.0
20190421191534 21 84 0.0 0.0 0.00 0.00 0.00 34 1015.1
20190421191021 21 84 0.0 0.0 0.00 0.00 0.00 33 1015.0
20190421190537 21 84 0.0 1.6 0.00 0.00 0.00 32 1015.1
20190421190034 21 84 0.0 1.6 0.00 0.00 0.00 32 1015.0
20190421185528 21 85 0.0 0.0 0.00 0.00 0.00 31 1015.0
20190421185024 22 85 0.0 1.6 0.00 0.00 0.00 31 1015.0
20190421184540 22 85 0.0 1.6 0.00 0.00 0.00 30 1014.9
20190421184035 22 85 0.0 1.6 0.00 0.00 0.00 30 1014.9
20190421183530 22 85 0.0 1.6 0.00 0.00 0.00 30 1014.9
20190421183027 22 85 0.0 0.0 0.00 0.00 0.00 29 1015.0
20190421182523 22 85 0.0 1.6 0.00 0.00 0.00 29 1015.0
20190421182040 23 85 0.0 3.2 0.00 0.00 0.00 29 1015.0
20190421181535 23 85 0.0 3.2 0.00 0.00 0.00 28 1015.1
20190421181031 23 83 0.0 3.2 0.00 0.00 0.00 28 1014.9
20190421180526 23 83 0.0 4.8 0.00 0.00 0.00 28 1015.0
20190421180023 23 75 1.6 4.8 0.00 0.00 0.00 28 1015.1
20190421175539 23 84 0.0 3.2 0.00 0.00 0.00 29 1015.0
20190421175034 23 81 0.0 6.4 0.00 0.00 0.00 29 1015.0
20190421174533 23 82 1.6 6.4 0.00 0.00 0.00 28 1015.1
20190421174029 23 74 1.6 6.4 0.00 0.00 0.00 28 1015.2
20190421173523 24 71 0.0 6.4 0.00 0.00 0.00 28 1015.1
20190421173041 24 84 1.6 6.4 0.00 0.00 0.00 28 1015.1
20190421172536 24 70 1.6 6.4 0.00 0.00 0.00 28 1015.2
20190421172033 24 75 3.2 6.4 0.00 0.00 0.00 28 1015.3
20190421171532 24 75 1.6 4.8 0.00 0.00 0.00 28 1015.2
20190421171027 24 80 1.6 6.4 0.00 0.00 0.00 28 1015.3
20190421170522 24 88 0.0 6.4 0.00 0.00 0.00 28 1015.3
20190421170039 24 75 1.6 11.3 0.00 0.00 0.00 28 1015.4
20190421165533 24 73 3.2 11.3 0.00 0.00 0.00 28 1015.4
20190421165031 25 63 1.6 6.4 0.00 0.00 0.00 28 1015.5
20190421164527 25 86 1.6 8.0 0.00 0.00 0.00 27 1015.6
20190421164022 25 66 1.6 8.0 0.00 0.00 0.00 28 1015.6
20190421163538 25 85 0.0 4.8 0.00 0.00 0.00 28 1015.6
20190421163036 25 76 0.0 11.3 0.00 0.00 0.00 28 1015.6
20190421162530 25 78 1.6 11.3 0.00 0.00 0.00 28 1015.8
20190421162025 25 76 1.6 6.4 0.00 0.00 0.00 28 1015.8
20190421161521 25 115 1.6 6.4 0.00 0.00 0.00 28 1016.0
20190421161035 25 88 3.2 6.4 0.00 0.00 0.00 28 1016.0
20190421160538 25 56 1.6 6.4 0.00 0.00 0.00 28 1016.0
20190421160035 25 72 0.0 8.0 0.00 0.00 0.00 28 1016.2
20190421155528 25 74 1.6 8.0 0.00 0.00 0.00 28 1016.2
20190421155023 25 86 1.6 6.4 0.00 0.00 0.00 28 1016.2
20190421154521 25 88 3.2 6.4 0.00 0.00 0.00 28 1016.3
20190421154036 25 171 0.0 4.8 0.00 0.00 0.00 28 1016.3
20190421153531 25 128 0.0 4.8 0.00 0.00 0.00 28 1016.5
20190421153028 25 107 0.0 6.4 0.00 0.00 0.00 27 1016.5
20190421152523 25 123 0.0 6.4 0.00 0.00 0.00 27 1016.6
20190421152037 26 108 1.6 6.4 0.00 0.00 0.00 27 1016.6
20190421151533 26 176 1.6 4.8 0.00 0.00 0.00 28 1016.7
20190421151030 26 116 0.0 6.4 0.00 0.00 0.00 27 1016.8
20190421150525 26 96 1.6 6.4 0.00 0.00 0.00 28 1016.9
20190421150022 26 207 0.0 3.2 0.00 0.00 0.00 28 1016.8
20190421145537 26 151 0.0 3.2 0.00 0.00 0.00 29 1016.9
20190421145032 25 136 0.0 11.3 0.00 0.00 0.00 28 1017.0
20190421144531 25 162 0.0 11.3 0.00 0.00 0.00 28 1017.0
20190421144026 26 113 1.6 4.8 0.00 0.00 0.00 27 1017.0
20190421143521 25 133 0.0 3.2 0.00 0.00 0.00 28 1017.1
20190421143038 25 136 0.0 6.4 0.00 0.00 0.00 27 1017.2
20190421142533 25 100 1.6 4.8 0.00 0.00 0.00 29 1017.2
20190421142032 25 76 0.0 4.8 0.00 0.00 0.00 30 1017.2
20190421141529 25 77 0.0 6.4 0.00 0.00 0.00 31 1017.3
20190421141024 25 67 1.6 6.4 0.00 0.00 0.00 29 1017.3
20190421140538 25 57 1.6 6.4 0.00 0.00 0.00 30 1017.5
20190421140034 25 64 1.6 4.8 0.00 0.00 0.00 29 1017.5
20190421135530 25 70 0.0 6.4 0.00 0.00 0.00 30 1017.6
20190421135026 25 88 1.6 6.4 0.00 0.00 0.00 30 1017.6
20190421134523 25 79 1.6 3.2 0.00 0.00 0.00 30 1017.6
20190421134037 25 185 1.6 8.0 0.00 0.00 0.00 29 1017.7
20190421133533 25 173 1.6 9.7 0.00 0.00 0.00 29 1017.8
20190421133032 25 71 1.6 6.4 0.00 0.00 0.00 29 1018.0
20190421132527 25 83 1.6 6.4 0.00 0.00 0.00 30 1018.0
20190421132021 25 82 0.0 9.7 0.00 0.00 0.00 32 1018.0
20190421131537 25 67 1.6 9.7 0.00 0.00 0.00 31 1018.1
20190421131032 25 82 1.6 4.8 0.00 0.00 0.00 31 1018.1
20190421130529 25 89 0.0 4.8 0.00 0.00 0.00 30 1018.2
20190421130025 25 85 1.6 6.4 0.00 0.00 0.00 31 1018.5
20190421125539 25 59 1.6 6.4 0.00 0.00 0.00 31 1018.5
20190421125035 24 86 0.0 9.7 0.00 0.00 0.00 31 1018.6
20190421124532 24 66 3.2 9.7 0.00 0.00 0.00 31 1018.6
20190421124027 24 109 3.2 12.9 0.00 0.00 0.00 32 1018.7
20190421123539 24 63 1.6 12.9 0.00 0.00 0.00 33 1018.7
20190421123037 24 72 3.2 12.9 0.00 0.00 0.00 33 1018.7
20190421122533 24 64 1.6 12.9 0.00 0.00 0.00 34 1018.8